Latest Weather Observations for Emerald

IDQ60801

Issued at 12:22 pm EST Friday 21 September 2018 (issued every 10 minutes, with the page automatically refreshed every 10 minutes)

About weather observations | Map of weather stations | Latest weather observations for QLD | Other Formats
Station Details ID: 035264 Name: EMERALD AIRPORT Lat: -23.57 Lon: 148.18 Height: 189.4 m
Data from the previous 72 hours. | See also: Recent months at Emerald
Date/Time
EST
Temp
°C
App
Temp
°C
Dew
Point
°C
Rel
Hum
%
Delta-T
°C
Wind Press
QNH
hPa
Press
MSL
hPa
Rain since
9am
mm
Dir  Spd
km/h
Gust
km/h
Spd
kts
Gust
kts
21/12:00pm 24.9 17.4 -8.8 10 13.2 ESE 24 39 13 21 1022.1 1021.6 0.0
21/11:47am 24.5 16.2 -9.1 10 13.1 S 28 54 15 29 1022.2 - 0.0
21/11:30am 23.9 16.3 -9.5 10 12.8 SE 24 35 13 19 1022.6 - 0.0
21/11:00am 23.5 14.9 -8.6 11 12.5 SE 30 43 16 23 1023.3 - 0.0
21/10:30am 22.1 13.9 -7.6 13 11.6 ESE 28 46 15 25 1023.7 - 0.0
21/10:00am 21.8 12.9 -6.8 14 11.3 SE 32 43 17 23 1023.9 - 0.0
21/09:32am 20.8 11.9 -6.7 15 10.8 SE 32 52 17 28 1024.0 - 0.0
21/09:30am 21.0 12.2 -5.7 16 10.7 SE 32 43 17 23 1024.1 - 0.0
21/09:00am 19.3 9.2 -5.6 18 9.8 SE 39 50 21 27 1024.2 1023.7 0.0
21/08:32am 18.9 10.0 -5.2 19 9.6 SE 33 52 18 28 1024.1 - 0.0
21/08:30am 19.7 10.9 -3.9 20 9.7 SE 33 46 18 25 1024.2 - 0.0
21/08:00am 17.7 9.4 -4.9 21 8.9 SSE 30 39 16 21 1023.8 - 0.0
21/07:30am 16.1 8.9 -5.0 23 8.2 SE 24 35 13 19 1023.5 - 0.0
21/07:00am 14.3 8.5 -4.9 26 7.3 SE 17 24 9 13 1023.0 - 0.0
21/06:30am 13.1 7.2 -5.4 27 6.9 SSE 17 22 9 12 1022.6 - 0.0
21/06:00am 12.4 7.3 -5.1 29 6.5 SSE 13 20 7 11 1022.2 1021.7 0.0
21/05:30am 12.6 7.9 -5.4 28 6.6 SSE 11 15 6 8 1021.7 - 0.0
21/05:00am 13.0 7.9 -5.5 27 6.8 SSE 13 19 7 10 1021.4 - 0.0
21/04:30am 13.4 7.9 -5.7 26 7.1 SSE 15 20 8 11 1021.0 - 0.0
21/04:00am 14.3 8.8 -5.4 25 7.4 SE 15 19 8 10 1020.8 - 0.0
21/03:30am 14.9 8.6 -5.5 24 7.7 SE 19 26 10 14 1020.6 - 0.0
21/03:00am 15.9 9.1 -5.2 23 8.1 SE 22 30 12 16 1020.3 1019.7 0.0
21/02:30am 16.3 9.5 -5.4 22 8.4 SE 22 32 12 17 1020.2 - 0.0
21/02:00am 17.1 9.5 -6.0 20 8.9 SE 26 33 14 18 1020.2 - 0.0
21/01:30am 17.8 9.0 -6.1 19 9.2 SSE 32 41 17 22 1019.8 - 0.0
21/01:00am 18.5 8.8 -5.5 19 9.4 SSE 37 54 20 29 1018.9 - 0.0
21/12:30am 18.0 10.4 -5.3 20 9.2 SSE 26 35 14 19 1019.4 - 0.0
21/12:00am 18.6 10.6 -6.2 18 9.6 SSE 28 37 15 20 1019.0 1018.5 0.0
 
Date/Time
EST
Temp
°C
App
Temp
°C
Dew
Point
°C
Rel
Hum
%
Delta-T
°C
Wind Press
QNH
hPa
Press
MSL
hPa
Rain since
9am
mm
Dir  Spd
km/h
Gust
km/h
Spd
kts
Gust
kts
20/11:30pm 19.5 10.7 -6.2 17 10.1 SSE 32 41 17 22 1018.8 - 0.0
20/11:00pm 20.3 12.2 -6.3 16 10.5 SSE 28 41 15 22 1018.8 - 0.0
20/10:30pm 21.0 12.5 -6.6 15 10.9 SSE 30 44 16 24 1018.9 - 0.0
20/10:00pm 21.3 14.4 -6.3 15 11.0 SSE 22 28 12 15 1018.6 - 0.0
20/09:30pm 22.5 14.7 -7.3 13 11.8 SSE 26 32 14 17 1018.3 - 0.0
20/09:00pm 23.4 16.4 -7.6 12 12.3 S 22 30 12 16 1017.8 1017.3 0.0
20/08:30pm 24.2 17.7 -5.9 13 12.4 SSE 20 28 11 15 1017.4 - 0.0
20/08:00pm 25.2 19.0 -3.2 15 12.4 SSE 20 24 11 13 1017.0 - 0.0
20/07:30pm 26.6 19.7 -6.2 11 13.8 S 22 35 12 19 1016.3 - 0.0
20/07:00pm 27.1 20.8 -3.7 13 13.6 SW 20 32 11 17 1015.5 - 0.0
20/06:30pm 27.9 22.0 -1.1 15 13.5 SW 20 28 11 15 1014.9 - 0.0
20/06:00pm 29.4 23.6 0.1 15 14.1 SW 20 26 11 14 1014.3 1013.7 0.0
20/05:30pm 30.7 24.2 0.2 14 14.8 SW 24 30 13 16 1013.8 - 0.0
20/05:00pm 31.6 25.8 -0.1 13 15.4 SW 20 28 11 15 1013.3 - 0.0
20/04:30pm 32.2 26.1 0.3 13 15.7 SW 22 33 12 18 1013.1 - 0.0
20/04:00pm 32.2 26.8 2.3 15 15.2 WSW 20 30 11 16 1012.9 - 0.0
20/03:30pm 32.2 27.1 4.1 17 14.7 SW 20 32 11 17 1013.0 - 0.0
20/03:00pm 32.0 28.1 5.5 19 14.2 SW 15 33 8 18 1013.1 1012.6 0.0
20/02:30pm 31.5 28.4 7.2 22 13.3 WNW 13 22 7 12 1013.5 - 0.0
20/02:00pm 30.6 28.4 7.7 24 12.6 SSW 9 20 5 11 1014.1 - 0.0
20/01:30pm 29.9 27.3 7.7 25 12.2 NW 11 24 6 13 1014.6 - 0.0
20/01:00pm 30.1 26.0 8.5 26 12.0 SSW 20 35 11 19 1015.0 - 0.0
20/12:30pm 29.2 25.6 8.3 27 11.5 W 17 30 9 16 1015.6 - 0.0
20/12:00pm 28.7 25.9 9.9 31 10.6 WSW 15 26 8 14 1016.1 1015.6 0.0
20/11:30am 27.8 25.8 10.1 33 10.0 W 11 19 6 10 1016.6 - 0.0
20/11:00am 27.3 24.1 10.1 34 9.7 WSW 17 28 9 15 1016.9 - 0.0
20/10:30am 26.9 24.9 10.2 35 9.4 W 11 20 6 11 1017.2 - 0.0
20/10:00am 25.8 24.4 9.6 36 9.0 SW 7 20 4 11 1017.2 - 0.0
20/09:30am 25.3 22.5 8.7 35 9.0 SSW 13 20 7 11 1017.4 - 0.0
20/09:00am 24.2 21.2 7.8 35 8.7 S 13 20 7 11 1017.3 1016.8 0.0
20/08:30am 23.2 21.4 9.6 42 7.4 SSW 9 15 5 8 1017.1 - 0.0
20/08:00am 21.6 20.3 9.8 47 6.4 SSE 7 11 4 6 1017.2 - 0.0
20/07:30am 19.4 17.8 8.7 50 5.6 SSE 7 11 4 6 1017.0 - 0.0
20/07:00am 17.4 15.0 8.8 57 4.5 ESE 11 13 6 7 1016.8 - 0.0
20/06:30am 15.4 13.3 8.4 63 3.6 E 9 13 5 7 1016.6 - 0.0
20/06:00am 14.8 13.0 7.8 63 3.5 E 7 9 4 5 1016.1 1015.6 0.0
20/05:30am 15.1 13.0 8.1 63 3.5 ESE 9 11 5 6 1015.6 - 0.0
20/05:00am 16.0 14.3 8.2 60 4.0 S 7 9 4 5 1015.1 - 0.0
20/04:30am 15.8 14.0 8.1 60 3.9 SSW 7 11 4 6 1014.9 - 0.0
20/04:00am 15.7 14.0 8.4 62 3.7 ESE 7 9 4 5 1014.0 - 0.0
20/03:30am 16.0 14.9 8.5 61 3.9 E 4 7 2 4 1013.6 - 0.0
20/03:00am 16.0 14.2 8.0 59 4.1 ENE 7 9 4 5 1013.8 1013.2 0.0
20/02:30am 16.8 15.5 7.7 55 4.6 E 4 7 2 4 1014.0 - 0.0
20/02:00am 18.3 16.6 8.3 52 5.2 NNE 7 9 4 5 1014.2 - 0.0
20/01:30am 18.1 15.5 7.8 51 5.3 NE 11 13 6 7 1014.3 - 0.0
20/01:00am 18.5 16.5 8.5 52 5.2 ENE 9 11 5 6 1014.6 - 0.0
20/12:30am 18.3 16.2 8.3 52 5.2 ENE 9 11 5 6 1015.0 - 0.0
20/12:00am 20.0 18.3 8.4 47 6.1 NE 7 11 4 6 1015.2 1014.6 0.0
 
Date/Time
EST
Temp
°C
App
Temp
°C
Dew
Point
°C
Rel
Hum
%
Delta-T
°C
Wind Press
QNH
hPa
Press
MSL
hPa
Rain since
9am
mm
Dir  Spd
km/h
Gust
km/h
Spd
kts
Gust
kts
19/11:30pm 21.0 18.5 8.3 44 6.7 NNE 11 15 6 8 1015.2 - 0.0
19/11:00pm 22.1 18.9 8.6 42 7.2 NNE 15 20 8 11 1015.1 - 0.0
19/10:30pm 22.5 19.5 9.3 43 7.2 N 15 20 8 11 1014.9 - 0.0
19/10:00pm 23.3 20.3 9.3 41 7.6 NNE 15 20 8 11 1014.8 - 0.0
19/09:30pm 23.6 21.0 9.2 40 7.8 NNE 13 19 7 10 1014.7 - 0.0
19/09:00pm 24.1 20.5 10.0 41 7.8 NNE 19 24 10 13 1014.5 1013.9 0.0
19/08:30pm 24.0 21.6 9.9 41 7.8 ENE 13 17 7 9 1014.2 - 0.0
19/08:00pm 23.9 21.8 9.9 41 7.7 ENE 11 13 6 7 1013.9 - 0.0
19/07:30pm 23.8 21.1 9.0 39 8.0 E 13 13 7 7 1013.6 - 0.0
19/07:00pm 24.8 22.1 9.1 37 8.6 E 13 15 7 8 1013.4 - 0.0
19/06:30pm 26.3 23.9 8.8 33 9.6 E 11 13 6 7 1013.3 - 0.0
19/06:00pm 28.0 26.2 7.8 28 11.0 ESE 7 9 4 5 1012.9 1012.4 0.0
19/05:30pm 30.0 28.4 7.8 25 12.2 ESE 6 7 3 4 1012.7 - 0.0
19/05:00pm 31.3 30.2 8.3 24 12.8 ENE 4 9 2 5 1012.5 - 0.0
19/04:30pm 31.0 28.9 8.1 24 12.7 NE 9 15 5 8 1012.2 - 0.0
19/04:00pm 30.8 29.3 9.1 26 12.2 NE 7 15 4 8 1012.0 - 0.0
19/03:30pm 30.6 29.6 8.9 26 12.2 E 4 9 2 5 1012.1 - 0.0
19/03:00pm 30.9 28.8 9.7 27 12.1 ENE 11 24 6 13 1012.5 1012.0 0.0
19/02:30pm 30.4 27.9 9.8 28 11.7 N 13 20 7 11 1012.8 - 0.0
19/02:00pm 30.2 27.6 10.7 30 11.2 NE 15 26 8 14 1013.4 - 0.0
19/01:30pm 30.2 28.1 11.2 31 11.0 NNE 13 22 7 12 1014.1 - 0.0
19/01:00pm 28.9 26.5 11.5 34 10.1 N 15 26 8 14 1014.5 - 0.0
19/12:30pm 27.8 24.9 10.9 35 9.7 N 17 24 9 13 1015.2 - 0.0
19/12:00pm 27.4 24.9 12.2 39 8.9 N 17 28 9 15 1016.0 1015.5 0.0
19/11:30am 25.8 23.2 11.9 42 8.0 N 17 26 9 14 1016.9 - 0.0
19/11:00am 25.8 24.5 13.6 47 7.2 N 13 20 7 11 1017.7 - 0.0
19/10:30am 24.2 22.9 13.7 52 6.2 N 13 24 7 13 1018.5 - 0.0
19/10:00am 23.2 21.6 13.9 56 5.5 N 15 28 8 15 1019.1 - 0.0
19/09:30am 22.6 20.5 13.7 57 5.2 NNE 17 26 9 14 1019.5 - 0.0
19/09:00am 21.6 18.5 13.5 60 4.7 NE 22 32 12 17 1019.7 1019.1 0.0
19/08:30am 21.2 18.4 14.4 65 4.0 NNE 22 28 12 15 1019.6 - 0.0
19/08:00am 19.9 17.7 14.3 70 3.3 NNE 19 24 10 13 1019.6 - 0.0
19/07:30am 18.9 17.0 14.2 74 2.7 NE 17 26 9 14 1018.8 - 0.0
19/07:00am 17.2 15.1 13.7 80 2.0 E 17 20 9 11 1018.1 - 0.0
19/06:30am 14.8 13.7 13.2 90 0.9 E 11 13 6 7 1018.1 - 0.0
19/06:00am 14.4 13.4 12.4 88 1.1 ESE 9 11 5 6 1017.8 1017.3 0.0
19/05:30am 14.9 13.3 12.9 88 1.1 ENE 13 17 7 9 1017.1 - 0.0
19/05:00am 14.7 13.4 12.6 87 1.2 E 11 13 6 7 1017.3 - 0.0
19/04:30am 14.9 14.3 12.4 85 1.4 ENE 7 13 4 7 1017.0 - 0.0
19/04:00am 15.9 15.8 13.2 84 1.5 NE 6 7 3 4 1017.0 - 0.0
19/03:30am 16.1 15.8 13.4 84 1.5 NE 7 11 4 6 1016.7 - 0.0
19/03:00am 16.0 15.0 13.5 85 1.4 ENE 11 15 6 8 1016.4 1015.9 0.0
19/02:30am 16.2 15.2 13.3 83 1.6 NE 11 15 6 8 1016.8 - 0.0
19/02:00am 16.9 16.2 13.2 79 2.1 NNE 9 11 5 6 1017.2 - 0.0
19/01:30am 17.7 16.8 13.6 77 2.3 NNE 11 13 6 7 1017.4 - 0.0
19/01:00am 18.1 16.8 13.6 75 2.6 N 13 17 7 9 1017.6 - 0.0
19/12:30am 18.7 17.1 13.8 73 2.8 N 15 20 8 11 1017.8 - 0.0
19/12:00am 19.0 17.7 13.8 72 3.0 N 13 17 7 9 1017.7 1017.2 0.0
 
Date/Time
EST
Temp
°C
App
Temp
°C
Dew
Point
°C
Rel
Hum
%
Delta-T
°C
Wind Press
QNH
hPa
Press
MSL
hPa
Rain since
9am
mm
Dir  Spd
km/h
Gust
km/h
Spd
kts
Gust
kts
18/11:30pm 19.3 18.1 13.9 71 3.1 NNE 13 17 7 9 1017.4 - 0.0
18/11:00pm 19.8 17.5 14.0 69 3.4 NE 19 24 10 13 1016.9 - 0.0
18/10:30pm 20.4 17.9 14.1 67 3.7 NE 20 28 11 15 1017.1 - 0.0
18/10:00pm 21.0 17.2 13.7 63 4.2 NE 26 33 14 18 1017.2 - 0.0
18/09:30pm 21.9 19.3 13.8 60 4.7 NE 20 33 11 18 1017.2 - 0.0
18/09:00pm 22.6 19.6 13.7 57 5.2 NE 22 32 12 17 1016.7 1016.2 0.0
18/08:30pm 23.4 20.0 13.6 54 5.8 ENE 24 32 13 17 1016.5 - 0.0
18/08:00pm 24.0 20.9 13.5 52 6.2 ENE 22 32 12 17 1015.9 - 0.0
18/07:30pm 24.3 20.5 9.8 40 8.0 E 20 32 11 17 1015.3 - 0.0
18/07:00pm 22.5 19.5 7.5 38 7.9 E 13 15 7 8 1014.7 - 0.0
18/06:30pm 23.7 20.7 7.8 36 8.4 E 13 17 7 9 1014.5 - 0.0
18/06:00pm 26.3 23.4 6.3 28 10.5 E 11 15 6 8 1014.4 1013.8 0.0
18/05:30pm 28.5 26.5 7.1 26 11.5 ENE 7 13 4 7 1014.3 - 0.0
18/05:00pm 29.1 26.7 7.1 25 11.9 NE 9 15 5 8 1014.3 - 0.0
18/04:30pm 29.3 25.9 7.8 26 11.8 ENE 15 24 8 13 1014.4 - 0.0
18/04:00pm 29.2 26.6 7.7 26 11.8 ESE 11 15 6 8 1014.4 - 0.0
18/03:30pm 29.7 27.7 8.7 27 11.7 E 9 19 5 10 1014.6 - 0.0
18/03:00pm 29.8 27.1 8.8 27 11.7 ENE 13 24 7 13 1014.8 1014.2 0.0
18/02:30pm 29.6 26.6 9.2 28 11.5 NNE 15 28 8 15 1015.2 - 0.0
18/02:00pm 29.9 26.3 9.9 29 11.4 ENE 19 28 10 15 1016.0 - 0.0
18/01:30pm 28.4 24.4 10.6 33 10.2 ENE 22 35 12 19 1016.5 - 0.0
18/01:00pm 28.1 25.5 12.0 36 9.4 ENE 17 24 9 13 1017.2 - 0.0
18/12:30pm 26.7 23.4 11.6 39 8.7 ENE 20 32 11 17 1017.8 - 0.0

Other Formats:

Comma delimited format used in spreadsheet applications
http://www.bom.gov.au/fwo/IDQ60801/IDQ60801.94363.axf

JavaScript Object Notation format (JSON) in row-major order
http://www.bom.gov.au/fwo/IDQ60801/IDQ60801.94363.json